Time;durP1;ratioP1;P1;durP2;ratioP2;P2;SDS_P1;SDS_P2;PMS_P1;PMS_P2;Temp;Humidity;BMP_temperature;BMP_pressure;BME280_temperature;BME280_humidity;BME280_pressure;Samples;Min_cycle;Max_cycle;Signal;HPM_P1;HPM_P2
2023/12/29 00:01:34;;;;;;;4.93;2.97;;;-1.80;96.20;;;;;;5105213;28;20016;-77
2023/12/29 00:04:01;;;;;;;4.13;2.40;;;-1.80;96.20;;;;;;5113316;28;20023;-78
2023/12/29 00:06:26;;;;;;;6.70;3.35;;;-1.80;96.20;;;;;;5099592;28;20028;-79
2023/12/29 00:08:52;;;;;;;3.08;2.30;;;-1.80;96.20;;;;;;5102973;28;20012;-78
2023/12/29 00:11:19;;;;;;;5.35;3.08;;;-1.90;96.30;;;;;;5085643;28;20036;-80
2023/12/29 00:13:46;;;;;;;5.97;2.90;;;-1.80;96.40;;;;;;5103150;28;20043;-79
2023/12/29 00:16:11;;;;;;;6.40;2.97;;;-1.70;96.40;;;;;;5094637;28;20496;-77
2023/12/29 00:18:38;;;;;;;4.35;2.70;;;-1.80;96.30;;;;;;5094780;28;20035;-79
2023/12/29 00:21:04;;;;;;;4.07;2.70;;;-1.80;96.30;;;;;;5094184;28;20054;-78
2023/12/29 00:23:30;;;;;;;3.97;2.53;;;-1.70;96.30;;;;;;5114696;28;20469;-80
2023/12/29 00:25:56;;;;;;;4.25;3.03;;;-1.70;96.40;;;;;;5113723;28;20035;-80
2023/12/29 00:28:22;;;;;;;4.70;2.95;;;-1.60;96.30;;;;;;5117326;28;20040;-79
2023/12/29 00:30:48;;;;;;;3.40;2.40;;;-1.60;96.20;;;;;;5106259;28;20107;-79
2023/12/29 00:33:13;;;;;;;4.03;2.17;;;-1.70;96.20;;;;;;5107112;28;20024;-80
2023/12/29 00:35:39;;;;;;;2.95;2.00;;;-1.70;96.20;;;;;;5088957;28;20532;-79
2023/12/29 00:38:06;;;;;;;4.07;3.08;;;-1.70;96.20;;;;;;5092427;28;20020;-79
2023/12/29 00:40:32;;;;;;;4.05;2.75;;;-1.70;96.20;;;;;;5093929;28;20042;-77
2023/12/29 00:42:59;;;;;;;4.15;2.67;;;-1.60;96.30;;;;;;5112710;28;20024;-79
2023/12/29 00:45:25;;;;;;;5.70;3.50;;;-1.60;96.20;;;;;;5099169;28;20044;-78
2023/12/29 00:47:51;;;;;;;3.72;2.33;;;-1.60;96.20;;;;;;5111991;28;20546;-79
2023/12/29 00:50:17;;;;;;;4.35;2.70;;;-1.60;96.20;;;;;;5111884;28;20077;-78
2023/12/29 00:52:43;;;;;;;4.45;2.42;;;-1.60;96.20;;;;;;5113539;28;20016;-78
2023/12/29 00:55:09;;;;;;;4.18;2.25;;;-1.60;96.20;;;;;;5109115;28;20439;-78
2023/12/29 00:57:34;;;;;;;4.47;2.92;;;-1.60;96.20;;;;;;5112347;28;20015;-78
2023/12/29 01:00:01;;;;;;;5.18;3.08;;;-1.60;96.10;;;;;;5112760;28;20495;-79
2023/12/29 01:02:26;;;;;;;5.15;2.78;;;-1.60;96.20;;;;;;5112397;28;20030;-79
2023/12/29 01:04:52;;;;;;;4.97;2.88;;;-1.60;96.20;;;;;;5112354;28;20446;-79
2023/12/29 01:07:18;;;;;;;5.93;2.90;;;-1.50;96.30;;;;;;5109340;28;20079;-80
2023/12/29 01:09:44;;;;;;;4.45;3.58;;;-1.50;96.30;;;;;;5111314;28;20026;-79
2023/12/29 01:12:10;;;;;;;3.88;2.78;;;-1.50;96.30;;;;;;5114773;28;20480;-80
2023/12/29 01:14:35;;;;;;;5.60;3.25;;;-1.40;96.20;;;;;;5095492;28;20028;-80
2023/12/29 01:17:01;;;;;;;4.95;2.92;;;-1.60;96.10;;;;;;5112294;28;20027;-78
2023/12/29 01:19:27;;;;;;;4.22;2.55;;;-1.50;96.30;;;;;;5112239;28;20065;-79
2023/12/29 01:21:53;;;;;;;3.40;2.28;;;-1.50;96.30;;;;;;5103373;28;20022;-80
2023/12/29 01:24:18;;;;;;;5.18;2.75;;;-1.50;96.20;;;;;;5100523;28;20515;-78
2023/12/29 01:26:46;;;;;;;4.68;2.53;;;-1.60;96.20;;;;;;5105408;28;20372;-79
2023/12/29 01:29:11;;;;;;;3.42;2.25;;;-1.60;96.20;;;;;;5091703;28;20024;-79
2023/12/29 01:31:37;;;;;;;4.20;2.50;;;-1.60;96.30;;;;;;5092351;28;20397;-79
2023/12/29 01:34:03;;;;;;;5.07;2.90;;;-1.60;96.20;;;;;;5111928;28;20027;-78
2023/12/29 01:36:29;;;;;;;3.83;2.33;;;-1.60;96.30;;;;;;5108959;28;20401;-79
2023/12/29 01:38:55;;;;;;;4.57;2.47;;;-1.50;96.30;;;;;;5091907;28;20381;-80
2023/12/29 01:41:21;;;;;;;4.07;2.75;;;-1.60;96.10;;;;;;5091230;28;20121;-79
2023/12/29 01:44:01;;;;;;;4.65;2.60;;;-1.60;96.10;;;;;;5111613;28;20020;-79
2023/12/29 01:46:35;;;;;;;4.75;3.05;;;-1.60;96.20;;;;;;5111964;28;20024;-79
2023/12/29 01:49:01;;;;;;;5.65;3.38;;;-1.70;96.20;;;;;;5103724;28;20031;-78
2023/12/29 01:51:27;;;;;;;4.05;2.50;;;-1.80;96.30;;;;;;5091741;28;20032;-80
2023/12/29 01:53:55;;;;;;;4.68;2.40;;;-1.80;96.40;;;;;;5097493;28;20031;-80
2023/12/29 01:56:22;;;;;;;4.63;2.55;;;-1.90;96.40;;;;;;5098191;28;20074;-80
2023/12/29 01:58:51;;;;;;;2.97;2.13;;;-1.90;96.60;;;;;;5097890;28;20024;-78
2023/12/29 02:01:18;;;;;;;4.35;2.47;;;-2.00;96.60;;;;;;5091414;28;20031;-80
2023/12/29 02:03:47;;;;;;;4.32;2.35;;;-2.00;96.70;;;;;;5094519;28;20096;-79
2023/12/29 02:06:16;;;;;;;7.70;3.70;;;-2.00;96.80;;;;;;5083818;28;20055;-79
2023/12/29 02:08:41;;;;;;;6.00;2.53;;;-2.10;96.80;;;;;;5107729;28;20488;-79
2023/12/29 02:11:07;;;;;;;5.30;3.05;;;-2.10;96.90;;;;;;5112077;28;20039;-80
2023/12/29 02:13:33;;;;;;;5.20;2.90;;;-2.10;96.90;;;;;;5111548;28;20031;-79
2023/12/29 02:16:08;;;;;;;4.28;2.88;;;-2.10;97.10;;;;;;5112251;28;20023;-80
2023/12/29 02:18:36;;;;;;;4.63;2.72;;;-2.00;97.00;;;;;;5111283;28;20024;-80
2023/12/29 02:21:02;;;;;;;;;;;-2.10;97.00;;;;;;5111616;28;20411;-79
2023/12/29 02:23:29;;;;;;;2.80;2.00;;;-2.10;96.90;;;;;;5109596;28;19908;-78
2023/12/29 02:26:02;;;;;;;4.28;2.90;;;-2.20;97.00;;;;;;5108919;28;20036;-80
2023/12/29 02:28:28;;;;;;;5.80;2.47;;;-2.20;97.20;;;;;;5117367;28;20053;-80
2023/12/29 02:31:07;;;;;;;5.40;2.50;;;-2.20;97.20;;;;;;5098240;28;20465;-77
2023/12/29 02:33:38;;;;;;;4.28;2.72;;;-2.20;97.20;;;;;;5096328;28;20455;-80
2023/12/29 02:36:05;;;;;;;3.45;2.20;;;-2.10;97.30;;;;;;5108603;28;20027;-79
2023/12/29 02:38:31;;;;;;;3.38;2.38;;;-2.00;97.30;;;;;;5114920;28;20069;-78
2023/12/29 02:40:58;;;;;;;3.83;2.20;;;-2.00;97.30;;;;;;5114918;28;20031;-79
2023/12/29 02:43:23;;;;;;;3.15;1.73;;;-2.00;97.20;;;;;;5114578;28;20020;-78
2023/12/29 02:45:49;;;;;;;6.65;2.30;;;-2.00;97.20;;;;;;5114689;28;20392;-78
2023/12/29 02:48:15;;;;;;;4.40;2.30;;;-2.10;97.20;;;;;;5100283;28;20024;-79
2023/12/29 02:50:41;;;;;;;3.92;2.38;;;-2.10;97.20;;;;;;5114647;28;20038;-79
2023/12/29 02:53:07;;;;;;;6.80;3.08;;;-2.10;97.30;;;;;;5100741;28;20051;-78
2023/12/29 02:55:33;;;;;;;3.50;2.47;;;-2.00;97.50;;;;;;5103020;28;20149;-78
2023/12/29 02:57:58;;;;;;;3.75;1.85;;;-1.90;97.20;;;;;;5102184;28;20020;-78
2023/12/29 03:00:24;;;;;;;3.80;1.85;;;-2.00;97.10;;;;;;5099034;28;20055;-77
2023/12/29 03:02:50;;;;;;;5.00;2.47;;;-2.00;97.20;;;;;;5102668;28;20016;-79
2023/12/29 03:05:16;;;;;;;3.95;2.75;;;-2.10;97.20;;;;;;5096831;28;20020;-78
2023/12/29 03:07:41;;;;;;;3.63;2.45;;;-2.00;97.30;;;;;;5096904;28;20030;-78
2023/12/29 03:10:08;;;;;;;4.35;1.95;;;-2.10;97.50;;;;;;5098125;28;20016;-77
2023/12/29 03:12:34;;;;;;;7.22;3.05;;;-2.10;97.30;;;;;;5099562;28;20075;-78
2023/12/29 03:15:00;;;;;;;3.10;2.22;;;-2.00;97.40;;;;;;5100137;28;20484;-78
2023/12/29 03:17:26;;;;;;;4.78;3.17;;;-1.90;97.50;;;;;;5095376;28;20126;-79
2023/12/29 03:19:52;;;;;;;5.20;2.75;;;-1.90;97.40;;;;;;5110030;28;20019;-78
2023/12/29 03:22:18;;;;;;;3.37;2.20;;;-1.80;97.40;;;;;;5110826;28;20370;-78
2023/12/29 03:24:44;;;;;;;5.38;2.65;;;-1.90;97.30;;;;;;5113054;28;20046;-78
2023/12/29 03:27:10;;;;;;;4.35;2.25;;;-1.90;97.50;;;;;;5095296;28;20672;-77
2023/12/29 03:29:36;;;;;;;3.88;2.20;;;-1.90;97.30;;;;;;5095367;28;20322;-79
2023/12/29 03:32:03;;;;;;;6.68;3.03;;;-1.90;97.30;;;;;;5105567;28;20054;-78
2023/12/29 03:34:28;;;;;;;3.35;2.15;;;-2.00;97.40;;;;;;5075091;28;20031;-78
2023/12/29 03:36:54;;;;;;;4.60;2.65;;;-2.00;97.50;;;;;;5107636;28;20395;-79
2023/12/29 03:39:20;;;;;;;5.70;2.40;;;-2.10;97.60;;;;;;5112667;28;20521;-79
2023/12/29 03:41:46;;;;;;;4.28;2.30;;;-2.10;97.70;;;;;;5076469;28;20043;-78
2023/12/29 03:44:12;;;;;;;4.47;2.10;;;-2.00;97.80;;;;;;5093004;28;20123;-80
2023/12/29 03:46:39;;;;;;;5.88;2.47;;;-2.00;97.70;;;;;;5099235;28;20524;-79
2023/12/29 03:49:09;;;;;;;5.93;3.20;;;-2.00;98.00;;;;;;5113643;28;20380;-81
2023/12/29 03:51:35;;;;;;;4.10;2.25;;;-2.00;97.80;;;;;;5113534;28;20040;-79
2023/12/29 03:54:01;;;;;;;5.63;2.35;;;-1.90;97.90;;;;;;5095061;28;20381;-77
2023/12/29 03:56:26;;;;;;;4.43;2.47;;;-1.90;97.70;;;;;;5094189;28;20030;-78
2023/12/29 03:58:52;;;;;;;5.55;2.85;;;-2.00;97.70;;;;;;5111680;28;20020;-79
2023/12/29 04:01:19;;;;;;;5.05;2.58;;;-2.10;97.80;;;;;;5113089;28;20031;-79
2023/12/29 04:03:46;;;;;;;5.22;2.17;;;-2.10;97.90;;;;;;5115911;28;20008;-81
2023/12/29 04:06:11;;;;;;;5.07;2.97;;;-2.10;98.00;;;;;;5113615;28;20027;-79
2023/12/29 04:08:38;;;;;;;5.05;2.63;;;-2.20;98.10;;;;;;5094663;28;20027;-78
2023/12/29 04:11:04;;;;;;;4.38;2.30;;;-2.10;98.20;;;;;;5094491;28;20486;-78
2023/12/29 04:13:31;;;;;;;3.50;2.38;;;-2.10;98.30;;;;;;5099101;28;20051;-78
2023/12/29 04:15:57;;;;;;;3.80;1.98;;;-2.20;98.40;;;;;;5103338;28;20031;-79
2023/12/29 04:18:24;;;;;;;7.03;3.25;;;-2.20;98.50;;;;;;5111321;28;20023;-80
2023/12/29 04:20:50;;;;;;;5.30;2.70;;;-2.20;98.70;;;;;;5095155;28;20035;-81
2023/12/29 04:23:16;;;;;;;8.27;3.13;;;-2.10;98.90;;;;;;5107585;28;20035;-80
2023/12/29 04:25:42;;;;;;;4.10;3.15;;;-2.20;99.10;;;;;;5104779;28;20059;-80
2023/12/29 04:28:08;;;;;;;6.18;3.33;;;-2.30;99.50;;;;;;5090564;28;20020;-79
2023/12/29 04:30:34;;;;;;;9.18;4.28;;;-2.40;99.90;;;;;;5084066;28;20460;-81
2023/12/29 04:33:00;;;;;;;6.20;3.50;;;-2.50;99.90;;;;;;5108857;28;20045;-79
2023/12/29 04:35:26;;;;;;;6.57;3.15;;;-2.40;99.90;;;;;;5092999;28;20028;-79
2023/12/29 04:37:52;;;;;;;5.40;3.25;;;-2.50;99.90;;;;;;5093001;28;20047;-79
2023/12/29 04:40:18;;;;;;;7.82;4.07;;;-2.50;99.90;;;;;;5115640;28;20024;-79
2023/12/29 04:42:44;;;;;;;6.25;3.10;;;-2.50;99.90;;;;;;5101127;28;20615;-80
2023/12/29 04:45:10;;;;;;;5.32;3.88;;;-2.50;99.90;;;;;;5094381;28;20058;-80
2023/12/29 04:47:36;;;;;;;4.22;2.75;;;-2.50;99.90;;;;;;5105421;28;20043;-78
2023/12/29 04:50:02;;;;;;;7.80;3.63;;;-2.40;99.90;;;;;;5093886;28;20354;-79
2023/12/29 04:52:28;;;;;;;13.65;4.90;;;-2.50;99.90;;;;;;5093212;28;20380;-78
2023/12/29 04:54:54;;;;;;;7.20;4.15;;;-2.50;99.90;;;;;;5087335;28;20027;-79
2023/12/29 04:57:20;;;;;;;8.35;3.97;;;-2.50;99.90;;;;;;5106394;28;20111;-79
2023/12/29 04:59:46;;;;;;;8.52;3.17;;;-2.50;99.90;;;;;;5092193;28;20024;-81
2023/12/29 05:02:11;;;;;;;6.45;3.85;;;-2.40;99.90;;;;;;5088011;28;20553;-82
2023/12/29 05:04:38;;;;;;;4.90;3.92;;;-2.40;99.90;;;;;;5089123;28;20032;-80
2023/12/29 05:07:05;;;;;;;7.72;4.35;;;-2.40;99.90;;;;;;5089634;28;20457;-81
2023/12/29 05:09:31;;;;;;;7.55;3.10;;;-2.40;99.90;;;;;;5089697;28;20044;-79
2023/12/29 05:11:57;;;;;;;8.07;4.25;;;-2.50;99.90;;;;;;5089373;28;20047;-80
2023/12/29 05:14:23;;;;;;;6.95;4.90;;;-2.50;99.90;;;;;;5089699;28;20185;-80
2023/12/29 05:16:49;;;;;;;7.15;4.28;;;-2.40;99.90;;;;;;5072925;28;20024;-79
2023/12/29 05:19:15;;;;;;;7.28;4.20;;;-2.30;99.90;;;;;;5087252;28;20036;-80
2023/12/29 05:21:41;;;;;;;7.72;4.22;;;-2.40;99.90;;;;;;5075527;28;20503;-79
2023/12/29 05:24:07;;;;;;;5.93;3.95;;;-2.30;99.90;;;;;;5089684;28;20024;-80
2023/12/29 05:26:33;;;;;;;9.32;4.50;;;-2.40;99.90;;;;;;5089368;28;20028;-80
2023/12/29 05:28:59;;;;;;;8.30;5.03;;;-2.40;99.90;;;;;;5090009;28;20089;-80
2023/12/29 05:31:25;;;;;;;8.05;4.97;;;-2.40;99.90;;;;;;5091771;28;20028;-80
2023/12/29 05:33:51;;;;;;;12.43;4.28;;;-2.40;99.90;;;;;;5090412;28;20060;-78
2023/12/29 05:36:20;;;;;;;7.63;5.30;;;-2.40;99.90;;;;;;5092973;28;20496;-81
2023/12/29 05:38:46;;;;;;;9.48;4.93;;;-2.50;99.90;;;;;;5073838;28;20032;-80
2023/12/29 05:41:16;;;;;;;9.27;4.65;;;-2.50;99.90;;;;;;5080051;28;20103;-81
2023/12/29 05:43:42;;;;;;;7.53;4.00;;;-2.40;99.90;;;;;;5095215;28;20389;-80
2023/12/29 05:46:11;;;;;;;9.45;5.55;;;-2.40;99.90;;;;;;5096752;28;20028;-80
2023/12/29 05:48:38;;;;;;;5.78;3.60;;;-2.40;99.90;;;;;;5096102;28;20015;-80
2023/12/29 05:51:12;;;;;;;8.33;4.80;;;-2.40;99.90;;;;;;5093864;28;20044;-79
2023/12/29 05:53:40;;;;;;;10.65;5.60;;;-2.40;99.90;;;;;;5105021;28;20284;-78
2023/12/29 05:56:06;;;;;;;9.93;5.28;;;-2.30;99.90;;;;;;5111613;28;20035;-78
2023/12/29 05:58:31;;;;;;;6.07;3.70;;;-2.30;99.90;;;;;;5104047;28;20028;-79
2023/12/29 06:01:01;;;;;;;11.27;4.93;;;-2.30;99.90;;;;;;5098371;28;20020;-81
2023/12/29 06:03:27;;;;;;;7.93;4.65;;;-2.30;99.90;;;;;;5094661;28;20481;-78
2023/12/29 06:05:54;;;;;;;9.57;5.88;;;-2.30;99.90;;;;;;5099706;28;20027;-78
2023/12/29 06:08:19;;;;;;;8.77;5.40;;;-2.30;99.90;;;;;;5105818;28;20050;-79
2023/12/29 06:10:45;;;;;;;8.90;4.35;;;-2.20;99.90;;;;;;5099605;28;20028;-79
2023/12/29 06:13:11;;;;;;;8.25;6.22;;;-2.20;99.90;;;;;;5090733;28;20024;-78
2023/12/29 06:15:38;;;;;;;11.20;6.57;;;-2.30;99.90;;;;;;5097626;28;20019;-80
2023/12/29 06:18:04;;;;;;;10.15;4.95;;;-2.30;99.90;;;;;;5097951;28;20085;-81
2023/12/29 06:20:30;;;;;;;9.43;5.55;;;-2.30;99.90;;;;;;5103095;28;20437;-81
2023/12/29 06:22:56;;;;;;;9.93;5.72;;;-2.20;99.90;;;;;;5095030;28;20099;-78
2023/12/29 06:25:22;;;;;;;8.15;4.97;;;-2.20;99.90;;;;;;5098381;28;20030;-79
2023/12/29 06:27:48;;;;;;;8.52;5.97;;;-2.20;99.90;;;;;;5112519;28;20471;-78
2023/12/29 06:30:14;;;;;;;9.43;5.00;;;-2.30;99.90;;;;;;5114878;28;20028;-81
2023/12/29 06:32:41;;;;;;;8.50;5.03;;;-2.30;99.90;;;;;;5114940;28;20067;-82
2023/12/29 06:35:09;;;;;;;10.18;6.93;;;-2.30;99.90;;;;;;5117449;28;21088;-81
2023/12/29 06:37:37;;;;;;;12.43;6.50;;;-2.20;99.90;;;;;;5112245;28;20019;-79
2023/12/29 06:40:03;;;;;;;9.57;5.15;;;-2.10;99.90;;;;;;5100429;28;20099;-81
2023/12/29 06:42:29;;;;;;;11.90;8.23;;;-2.10;99.90;;;;;;5117997;27;20389;-80
2023/12/29 06:44:55;;;;;;;8.75;5.68;;;-2.10;99.90;;;;;;5086819;28;20052;-82
2023/12/29 06:47:21;;;;;;;11.23;6.25;;;-2.00;99.90;;;;;;5087334;28;20032;-80
2023/12/29 06:49:47;;;;;;;10.27;6.18;;;-1.90;99.90;;;;;;5088362;28;20020;-80
2023/12/29 06:52:13;;;;;;;14.68;5.97;;;-1.90;99.90;;;;;;5068690;28;20024;-80
2023/12/29 06:54:39;;;;;;;11.43;6.00;;;-1.90;99.90;;;;;;5086087;28;20017;-82
2023/12/29 06:57:05;;;;;;;11.02;6.53;;;-1.90;99.90;;;;;;5086026;28;20385;-81
2023/12/29 06:59:30;;;;;;;11.20;6.53;;;-1.90;99.90;;;;;;5074442;28;20062;-81
2023/12/29 07:01:56;;;;;;;9.23;6.28;;;-1.90;99.90;;;;;;5078396;28;20040;-82
2023/12/29 07:04:22;;;;;;;10.07;6.63;;;-1.80;99.90;;;;;;5077997;28;20017;-80
2023/12/29 07:06:48;;;;;;;16.08;6.63;;;-1.70;99.90;;;;;;5073899;28;20012;-80
2023/12/29 07:09:14;;;;;;;11.35;6.40;;;-1.60;99.90;;;;;;5086718;28;20469;-80
2023/12/29 07:11:39;;;;;;;13.13;5.43;;;-1.60;99.90;;;;;;5073165;28;20111;-80
2023/12/29 07:14:05;;;;;;;11.00;5.22;;;-1.50;99.90;;;;;;5084061;28;20127;-80
2023/12/29 07:16:31;;;;;;;22.48;7.22;;;-1.50;99.90;;;;;;5092418;28;20078;-80
2023/12/29 07:18:57;;;;;;;14.10;6.35;;;-1.50;99.90;;;;;;5093234;28;20021;-80
2023/12/29 07:21:22;;;;;;;13.35;5.93;;;-1.40;99.90;;;;;;5075292;28;20024;-80
2023/12/29 07:23:48;;;;;;;12.88;7.32;;;-1.30;99.90;;;;;;5083123;28;20055;-81
2023/12/29 07:26:14;;;;;;;12.15;6.53;;;-1.30;99.90;;;;;;5089726;28;20028;-80
2023/12/29 07:28:40;;;;;;;18.90;9.10;;;-1.30;99.90;;;;;;5074460;28;20031;-81
2023/12/29 07:31:06;;;;;;;14.02;6.85;;;-1.30;99.90;;;;;;5092433;28;20086;-81
2023/12/29 07:33:32;;;;;;;13.05;7.32;;;-1.20;99.90;;;;;;5068669;28;20021;-81
2023/12/29 07:35:57;;;;;;;13.00;6.80;;;-1.10;99.90;;;;;;5073065;28;20111;-79
2023/12/29 07:38:24;;;;;;;9.80;5.05;;;-1.10;99.90;;;;;;5056946;28;20411;-79
2023/12/29 07:40:50;;;;;;;12.57;4.97;;;-1.00;99.90;;;;;;5068073;28;20028;-79
2023/12/29 07:43:16;;;;;;;8.70;5.75;;;-1.10;99.90;;;;;;5059325;28;20024;-78
2023/12/29 07:45:43;;;;;;;8.55;5.65;;;-1.10;99.90;;;;;;5102088;28;20078;-79
2023/12/29 07:48:09;;;;;;;14.57;7.03;;;-1.00;99.90;;;;;;5095756;28;20020;-77
2023/12/29 07:50:35;;;;;;;9.65;5.28;;;-0.90;99.90;;;;;;5099580;28;20043;-78
2023/12/29 07:53:02;;;;;;;21.63;8.55;;;-0.80;99.90;;;;;;5110085;28;20031;-79
2023/12/29 07:55:30;;;;;;;12.43;6.22;;;-0.80;99.90;;;;;;5098764;28;20016;-77
2023/12/29 07:57:56;;;;;;;13.40;5.95;;;-0.80;99.90;;;;;;5093834;28;20013;-79
2023/12/29 08:00:23;;;;;;;13.18;6.25;;;-0.70;99.90;;;;;;5102183;28;20047;-79
2023/12/29 08:02:49;;;;;;;13.77;4.93;;;-0.70;99.90;;;;;;5085471;28;20358;-80
2023/12/29 08:05:16;;;;;;;10.50;7.63;;;-0.70;99.90;;;;;;5098552;28;20057;-82
2023/12/29 08:07:42;;;;;;;;;;;-0.70;99.90;;;;;;5095591;28;20016;-84
2023/12/29 08:10:09;;;;;;;11.90;6.43;;;-0.60;99.90;;;;;;5095545;28;19908;-81
2023/12/29 08:12:36;;;;;;;11.02;6.47;;;-0.60;99.90;;;;;;5107164;28;20015;-83
2023/12/29 08:15:02;;;;;;;12.45;7.10;;;-0.60;99.90;;;;;;5090723;28;20028;-82
2023/12/29 08:17:29;;;;;;;14.87;8.03;;;-0.50;99.90;;;;;;5108572;28;20026;-81
2023/12/29 08:19:55;;;;;;;11.90;6.72;;;-0.50;99.90;;;;;;5112577;28;20059;-81
2023/12/29 08:22:21;;;;;;;15.82;7.85;;;-0.50;99.90;;;;;;5092203;28;20052;-82
2023/12/29 08:24:47;;;;;;;12.70;6.50;;;-0.40;99.90;;;;;;5103690;28;20024;-81
2023/12/29 08:27:14;;;;;;;18.65;6.55;;;-0.40;99.90;;;;;;5093222;28;20762;-80
2023/12/29 08:29:40;;;;;;;12.27;6.47;;;-0.50;99.90;;;;;;5073871;28;20039;-80
2023/12/29 08:32:07;;;;;;;9.50;6.32;;;-0.50;99.90;;;;;;5093798;28;20413;-79
2023/12/29 08:34:34;;;;;;;12.82;7.25;;;-0.50;99.90;;;;;;5093975;28;20481;-80
2023/12/29 08:37:00;;;;;;;9.20;5.90;;;-0.60;99.90;;;;;;5088611;28;20032;-77
2023/12/29 08:39:26;;;;;;;14.10;7.18;;;-0.60;99.90;;;;;;5077072;28;20467;-81
2023/12/29 08:41:51;;;;;;;13.07;6.63;;;-0.60;99.90;;;;;;5095333;28;20180;-81
2023/12/29 08:44:17;;;;;;;13.40;7.10;;;-0.50;99.90;;;;;;5093776;28;20365;-79
2023/12/29 08:46:43;;;;;;;12.77;7.20;;;-0.40;99.90;;;;;;5075202;28;20020;-81
2023/12/29 08:49:09;;;;;;;13.48;6.28;;;-0.30;99.90;;;;;;5106647;28;20054;-82
2023/12/29 08:51:35;;;;;;;9.65;5.72;;;-0.20;99.90;;;;;;5088852;28;20051;-81
2023/12/29 08:54:01;;;;;;;13.85;7.00;;;-0.20;99.90;;;;;;5109497;28;20039;-81
2023/12/29 08:56:29;;;;;;;12.43;7.90;;;-0.20;99.90;;;;;;5093178;28;20028;-82
2023/12/29 08:58:54;;;;;;;13.90;7.72;;;-0.20;99.90;;;;;;5103866;28;20039;-83
2023/12/29 09:01:20;;;;;;;14.98;7.40;;;-0.10;99.90;;;;;;5110967;28;20028;-80
2023/12/29 09:03:46;;;;;;;12.68;8.57;;;-0.10;99.90;;;;;;5095746;28;20024;-81
2023/12/29 09:06:12;;;;;;;13.15;7.65;;;-0.20;99.90;;;;;;5091838;28;20428;-82
2023/12/29 09:08:38;;;;;;;15.48;6.95;;;-0.20;99.90;;;;;;5100673;28;20453;-81
2023/12/29 09:11:04;;;;;;;16.58;8.70;;;-0.20;99.90;;;;;;5110608;28;20168;-81
2023/12/29 09:13:30;;;;;;;12.55;7.18;;;-0.20;99.90;;;;;;5107002;28;20024;-79
2023/12/29 09:15:57;;;;;;;12.85;7.70;;;-0.20;99.90;;;;;;5111505;28;20392;-82
2023/12/29 09:18:23;;;;;;;14.50;8.30;;;-0.20;99.90;;;;;;5111993;28;20383;-83
2023/12/29 09:20:48;;;;;;;13.07;7.63;;;-0.20;99.90;;;;;;5097635;28;20343;-81
2023/12/29 09:23:14;;;;;;;16.92;8.13;;;-0.20;99.90;;;;;;5102172;28;20056;-82
2023/12/29 09:25:41;;;;;;;16.98;8.20;;;-0.20;99.90;;;;;;5099414;28;20024;-80
2023/12/29 09:28:07;;;;;;;12.02;8.05;;;-0.20;99.90;;;;;;5105768;28;20533;-82
2023/12/29 09:30:33;;;;;;;12.95;8.27;;;-0.10;99.90;;;;;;5114009;28;20031;-84
2023/12/29 09:32:59;;;;;;;13.80;8.35;;;-0.20;99.90;;;;;;5109459;28;20069;-80
2023/12/29 09:35:24;;;;;;;20.42;7.85;;;-0.10;99.90;;;;;;5113438;28;20399;-82
2023/12/29 09:37:50;;;;;;;15.13;8.45;;;-0.10;99.90;;;;;;5105354;28;20032;-82
2023/12/29 09:40:16;;;;;;;15.70;9.43;;;-0.10;99.90;;;;;;5112893;28;20026;-80
2023/12/29 09:42:46;;;;;;;20.27;9.70;;;-0.10;99.90;;;;;;5106781;28;20024;-81
2023/12/29 09:45:13;;;;;;;22.65;11.20;;;0.00;99.90;;;;;;5102099;28;20484;-82
2023/12/29 09:47:41;;;;;;;15.00;9.05;;;0.10;99.90;;;;;;5100736;28;20097;-81
2023/12/29 09:50:13;;;;;;;18.38;9.25;;;0.20;99.90;;;;;;5100724;28;20047;-81
2023/12/29 09:52:40;;;;;;;15.13;8.05;;;0.20;99.90;;;;;;5102103;28;20488;-81
2023/12/29 09:55:10;;;;;;;22.65;7.72;;;0.30;99.90;;;;;;5096753;28;20433;-82
2023/12/29 09:57:38;;;;;;;20.33;10.27;;;0.30;99.90;;;;;;5097493;28;20503;-82
2023/12/29 10:00:05;;;;;;;20.90;10.48;;;0.30;99.90;;;;;;5109833;28;20042;-81
2023/12/29 10:02:32;;;;;;;16.77;7.88;;;0.40;99.90;;;;;;5107960;28;20028;-81
2023/12/29 10:05:01;;;;;;;12.25;7.22;;;0.50;99.90;;;;;;5096254;28;20031;-83
2023/12/29 10:07:30;;;;;;;14.25;7.97;;;0.50;99.90;;;;;;5097822;28;20023;-81
2023/12/29 10:09:58;;;;;;;17.38;8.60;;;0.50;99.90;;;;;;5095605;28;20093;-81
2023/12/29 10:12:25;;;;;;;16.70;8.15;;;0.50;99.90;;;;;;5108318;28;20095;-80
2023/12/29 10:15:10;;;;;;;15.30;10.10;;;0.50;99.90;;;;;;5096671;28;20016;-80
2023/12/29 10:17:35;;;;;;;14.13;9.40;;;0.60;99.90;;;;;;5106857;28;20020;-79
2023/12/29 10:20:21;;;;;;;17.98;9.77;;;0.70;99.90;;;;;;5097319;28;20472;-82
2023/12/29 10:23:20;;;;;;;16.50;10.23;;;0.80;99.90;;;;;;5098595;28;20024;-81
2023/12/29 10:25:47;;;;;;;19.20;8.25;;;0.90;99.90;;;;;;5017613;28;20054;-84
2023/12/29 10:28:13;;;;;;;15.88;7.75;;;0.90;99.90;;;;;;5097579;28;20020;-82
2023/12/29 10:30:40;;;;;;;11.45;6.80;;;0.90;99.90;;;;;;5095364;28;20051;-82
2023/12/29 10:33:05;;;;;;;15.82;9.02;;;0.90;99.90;;;;;;5097424;28;20027;-83
2023/12/29 10:35:34;;;;;;;14.23;7.90;;;0.90;99.90;;;;;;5095082;28;20024;-80
2023/12/29 10:38:10;;;;;;;16.60;9.45;;;0.90;99.90;;;;;;5104590;28;20127;-83
2023/12/29 10:40:36;;;;;;;14.77;8.27;;;0.90;99.90;;;;;;5103716;28;20016;-81
2023/12/29 10:43:06;;;;;;;14.18;9.43;;;0.90;99.90;;;;;;5100687;28;20034;-80
2023/12/29 10:45:32;;;;;;;16.60;8.07;;;1.00;99.90;;;;;;5103142;28;20044;-82
2023/12/29 10:48:00;;;;;;;12.45;7.43;;;1.00;99.90;;;;;;5106950;28;20023;-80
2023/12/29 10:50:27;;;;;;;19.10;9.65;;;1.00;99.90;;;;;;5107420;28;20117;-83
2023/12/29 10:53:12;;;;;;;10.18;7.05;;;1.00;99.90;;;;;;5077384;28;20056;-82
2023/12/29 10:55:38;;;;;;;18.50;8.85;;;1.10;99.90;;;;;;5102360;28;20325;-85
2023/12/29 10:58:06;;;;;;;12.65;7.63;;;1.10;99.90;;;;;;5115603;28;20034;-80
2023/12/29 11:00:35;;;;;;;16.23;9.60;;;1.10;99.90;;;;;;5109483;28;20012;-84
2023/12/29 11:03:01;;;;;;;17.08;7.88;;;1.10;99.90;;;;;;5096800;28;20075;-83
2023/12/29 11:05:27;;;;;;;14.13;8.25;;;1.10;99.90;;;;;;5100226;28;20058;-84
2023/12/29 11:07:54;;;;;;;13.15;7.70;;;1.20;99.90;;;;;;5110784;28;20103;-83
2023/12/29 11:10:21;;;;;;;13.68;8.85;;;1.20;99.90;;;;;;5103925;28;20051;-84
2023/12/29 11:12:48;;;;;;;13.43;9.02;;;1.20;99.90;;;;;;5098877;28;20095;-84
2023/12/29 11:15:16;;;;;;;10.88;7.35;;;1.20;99.90;;;;;;5090676;28;20168;-85
2023/12/29 11:18:01;;;;;;;17.60;9.05;;;1.20;99.90;;;;;;5115300;28;20055;-84
2023/12/29 11:20:27;;;;;;;12.90;8.20;;;1.20;99.90;;;;;;5120438;28;20016;-85
2023/12/29 11:22:54;;;;;;;12.63;8.43;;;1.20;99.90;;;;;;5096644;28;20050;-85
2023/12/29 11:25:20;;;;;;;12.43;8.40;;;1.10;99.90;;;;;;5111034;28;20092;-85
2023/12/29 11:27:48;;;;;;;12.73;6.70;;;1.10;99.90;;;;;;5099737;28;20024;-87
2023/12/29 11:30:15;;;;;;;12.85;7.80;;;1.10;99.90;;;;;;5110613;28;20028;-85
2023/12/29 11:32:57;;;;;;;13.32;7.47;;;1.10;99.90;;;;;;5102161;28;20023;-84
2023/12/29 11:35:46;;;;;;;13.80;9.35;;;1.10;99.90;;;;;;5106457;28;20020;-85
2023/12/29 11:38:40;;;;;;;10.20;7.72;;;1.20;99.90;;;;;;5093946;28;21598;-85
2023/12/29 11:41:33;;;;;;;11.90;8.13;;;1.10;99.90;;;;;;5107593;28;20027;-84
2023/12/29 11:44:00;;;;;;;19.40;10.10;;;1.20;99.90;;;;;;5100885;28;20063;-81
2023/12/29 11:46:39;;;;;;;19.92;9.15;;;1.20;99.90;;;;;;5100471;28;20020;-82
2023/12/29 11:49:06;;;;;;;14.73;9.43;;;1.20;99.90;;;;;;5095687;28;20553;-82
2023/12/29 11:51:32;;;;;;;15.00;10.65;;;1.20;99.90;;;;;;5108725;28;20043;-84
2023/12/29 11:54:00;;;;;;;16.08;10.02;;;1.20;99.90;;;;;;5095728;28;20121;-84
2023/12/29 11:56:41;;;;;;;14.68;9.48;;;1.20;99.90;;;;;;5094472;28;20501;-84
2023/12/29 11:59:20;;;;;;;19.27;11.15;;;1.20;99.90;;;;;;5102413;28;20024;-85
2023/12/29 12:01:48;;;;;;;20.92;11.38;;;1.20;99.90;;;;;;5097958;28;20018;-83
2023/12/29 12:04:36;;;;;;;16.98;9.40;;;1.30;99.90;;;;;;5093280;28;20016;-83
2023/12/29 12:07:04;;;;;;;14.75;9.63;;;1.40;99.90;;;;;;5099972;28;20024;-84
2023/12/29 12:09:30;;;;;;;15.07;9.35;;;1.40;99.90;;;;;;5098077;28;20028;-81
2023/12/29 12:11:56;;;;;;;17.55;9.13;;;1.40;99.90;;;;;;5097118;28;20043;-82
2023/12/29 12:14:51;;;;;;;13.10;8.32;;;1.50;99.90;;;;;;5100102;28;20012;-81
2023/12/29 12:17:33;;;;;;;15.68;8.77;;;1.50;99.90;;;;;;5092616;28;20020;-82
2023/12/29 12:20:08;;;;;;;14.68;9.68;;;1.50;99.90;;;;;;5097908;28;20028;-82
2023/12/29 12:22:35;;;;;;;13.07;9.23;;;1.50;99.90;;;;;;5092601;28;20027;-81
2023/12/29 12:25:01;;;;;;;12.20;8.65;;;1.60;99.90;;;;;;5099028;28;20028;-81
2023/12/29 12:27:28;;;;;;;12.27;6.80;;;1.60;99.90;;;;;;5112949;28;20124;-82
2023/12/29 12:29:59;;;;;;;14.10;9.00;;;1.60;99.90;;;;;;5112659;28;20028;-82
2023/12/29 12:32:29;;;;;;;14.63;9.50;;;1.70;99.90;;;;;;5106688;28;20055;-81
2023/12/29 12:34:56;;;;;;;14.65;8.52;;;1.70;99.90;;;;;;5094013;28;20028;-83
2023/12/29 12:37:23;;;;;;;13.63;8.07;;;1.70;99.90;;;;;;5102153;28;20365;-83
2023/12/29 12:39:49;;;;;;;19.08;8.32;;;1.80;99.90;;;;;;5098538;28;20028;-83
2023/12/29 12:42:20;;;;;;;13.57;7.53;;;1.80;99.90;;;;;;5093055;28;20476;-80
2023/12/29 12:44:55;;;;;;;15.60;8.95;;;1.80;99.90;;;;;;5094483;28;20049;-82
2023/12/29 12:47:37;;;;;;;12.02;8.23;;;1.90;99.90;;;;;;5108447;28;20067;-83